Time;durP1;ratioP1;P1;durP2;ratioP2;P2;SDS_P1;SDS_P2;PMS_P1;PMS_P2;Temp;Humidity;BMP_temperature;BMP_pressure;BME280_temperature;BME280_humidity;BME280_pressure;Samples;Min_cycle;Max_cycle;Signal;HPM_P1;HPM_P2
2023/12/07 00:00:46;;;;;;;8.80;3.20;;;;;;;;;;4979002;28;20030;-67
2023/12/07 00:03:12;;;;;;;11.63;3.13;;;;;;;;;;4975754;28;20037;-66
2023/12/07 00:05:38;;;;;;;10.05;3.42;;;;;;;;;;4978630;28;21304;-65
2023/12/07 00:08:05;;;;;;;9.30;3.30;;;;;;;;;;4978090;28;20033;-66
2023/12/07 00:10:32;;;;;;;8.68;3.20;;;;;;;;;;4983303;28;20134;-66
2023/12/07 00:12:58;;;;;;;10.45;3.50;;;;;;;;;;4981416;28;20038;-65
2023/12/07 00:15:24;;;;;;;9.85;3.70;;;;;;;;;;4983174;28;20392;-66
2023/12/07 00:17:50;;;;;;;9.48;3.80;;;;;;;;;;4982291;28;20053;-66
2023/12/07 00:20:16;;;;;;;12.80;4.30;;;;;;;;;;4978818;28;20113;-69
2023/12/07 00:22:42;;;;;;;9.13;3.78;;;;;;;;;;4982738;28;20378;-66
2023/12/07 00:25:09;;;;;;;11.45;4.22;;;;;;;;;;4978564;28;20060;-65
2023/12/07 00:27:36;;;;;;;12.30;4.07;;;;;;;;;;4982107;28;20041;-65
2023/12/07 00:30:03;;;;;;;9.98;3.72;;;;;;;;;;4964228;28;20038;-66
2023/12/07 00:32:29;;;;;;;10.57;3.60;;;;;;;;;;4972206;28;20030;-66
2023/12/07 00:34:55;;;;;;;10.45;3.75;;;;;;;;;;4984569;28;20034;-66
2023/12/07 00:37:21;;;;;;;9.75;3.60;;;;;;;;;;4990257;28;20034;-66
2023/12/07 00:39:47;;;;;;;12.45;4.40;;;;;;;;;;4991592;28;20029;-66
2023/12/07 00:42:14;;;;;;;10.00;3.63;;;;;;;;;;4988821;28;20025;-68
2023/12/07 00:44:43;;;;;;;10.55;3.60;;;;;;;;;;4988820;28;20427;-66
2023/12/07 00:47:09;;;;;;;10.35;3.92;;;;;;;;;;4988976;28;20030;-66
2023/12/07 00:49:42;;;;;;;10.18;4.13;;;;;;;;;;4989410;28;20210;-67
2023/12/07 00:52:09;;;;;;;10.10;4.15;;;;;;;;;;4985330;28;20037;-65
2023/12/07 00:54:35;;;;;;;;;;;;;;;;;;4990537;28;20092;-67
2023/12/07 00:57:01;;;;;;;10.45;3.85;;;;;;;;;;4986480;28;20321;-66
2023/12/07 00:59:27;;;;;;;10.05;4.25;;;;;;;;;;4990511;28;20379;-66
2023/12/07 01:01:53;;;;;;;11.35;4.13;;;;;;;;;;4986932;28;20072;-66
2023/12/07 01:04:19;;;;;;;9.85;4.07;;;;;;;;;;4987748;28;20038;-67
2023/12/07 01:06:54;;;;;;;10.57;3.70;;;;;;;;;;4966562;28;20022;-67
2023/12/07 01:09:21;;;;;;;11.13;3.97;;;;;;;;;;4947300;28;20031;-65
2023/12/07 01:11:48;;;;;;;10.90;4.05;;;;;;;;;;4946306;28;20132;-65
2023/12/07 01:14:14;;;;;;;9.90;3.47;;;;;;;;;;4944086;28;20117;-65
2023/12/07 01:16:40;;;;;;;;;;;;;;;;;;4947034;28;20033;-65
2023/12/07 01:19:07;;;;;;;12.07;4.32;;;;;;;;;;4944102;28;20535;-68
2023/12/07 01:21:33;;;;;;;10.63;4.13;;;;;;;;;;4948729;28;20026;-66
2023/12/07 01:23:59;;;;;;;11.38;3.53;;;;;;;;;;4943238;28;20022;-68
2023/12/07 01:26:26;;;;;;;9.98;3.25;;;;;;;;;;4950471;28;21419;-67
2023/12/07 01:28:52;;;;;;;;;;;;;;;;;;4947406;28;20053;-65
2023/12/07 01:31:19;;;;;;;9.15;3.33;;;;;;;;;;4944469;28;19913;-66
2023/12/07 01:33:45;;;;;;;10.50;3.30;;;;;;;;;;4946690;28;20064;-65
2023/12/07 01:36:11;;;;;;;11.98;4.22;;;;;;;;;;4939933;28;20048;-65
2023/12/07 01:38:37;;;;;;;8.45;3.08;;;;;;;;;;4945081;28;20900;-65
2023/12/07 01:41:04;;;;;;;9.07;3.10;;;;;;;;;;4945226;28;20087;-65
2023/12/07 01:43:30;;;;;;;;;;;;;;;;;;4958675;28;20034;-65
2023/12/07 01:45:59;;;;;;;12.15;4.38;;;;;;;;;;4984826;28;20336;-69
2023/12/07 01:48:26;;;;;;;9.80;3.78;;;;;;;;;;4989777;28;20405;-67
2023/12/07 01:50:54;;;;;;;9.68;3.38;;;;;;;;;;4985851;28;20044;-67
2023/12/07 01:53:22;;;;;;;9.30;3.60;;;;;;;;;;4987879;28;20030;-67
2023/12/07 01:55:48;;;;;;;8.88;3.10;;;;;;;;;;4986963;28;20054;-67
2023/12/07 01:58:15;;;;;;;8.38;3.28;;;;;;;;;;4986710;28;20112;-66
2023/12/07 02:00:42;;;;;;;8.52;2.70;;;;;;;;;;4985740;28;20022;-67
2023/12/07 02:03:08;;;;;;;8.00;3.03;;;;;;;;;;4986202;28;20030;-67
2023/12/07 02:05:35;;;;;;;9.93;3.22;;;;;;;;;;4989255;28;20552;-67
2023/12/07 02:08:01;;;;;;;8.40;2.97;;;;;;;;;;4983543;28;20034;-68
2023/12/07 02:10:27;;;;;;;9.68;3.47;;;;;;;;;;4984993;28;20037;-67
2023/12/07 02:12:55;;;;;;;10.00;3.90;;;;;;;;;;4985814;28;20124;-66
2023/12/07 02:15:21;;;;;;;9.30;3.55;;;;;;;;;;4985686;28;20092;-68
2023/12/07 02:17:53;;;;;;;9.45;3.85;;;;;;;;;;4987716;28;20038;-67
2023/12/07 02:20:19;;;;;;;9.85;3.72;;;;;;;;;;4988137;28;20125;-67
2023/12/07 02:22:56;;;;;;;10.75;3.70;;;;;;;;;;4984684;28;20097;-66
2023/12/07 02:25:58;;;;;;;9.55;3.90;;;;;;;;;;4985544;28;20113;-66
2023/12/07 02:28:24;;;;;;;10.30;3.00;;;;;;;;;;4989955;28;20029;-66
2023/12/07 02:30:50;;;;;;;9.52;2.97;;;;;;;;;;4985902;28;20049;-66
2023/12/07 02:33:16;;;;;;;6.53;2.40;;;;;;;;;;4985207;28;20056;-66
2023/12/07 02:35:42;;;;;;;8.50;2.38;;;;;;;;;;4986293;28;20049;-66
2023/12/07 02:38:08;;;;;;;6.32;1.83;;;;;;;;;;4984641;28;20041;-66
2023/12/07 02:40:35;;;;;;;7.72;2.78;;;;;;;;;;4987827;28;20037;-66
2023/12/07 02:43:01;;;;;;;;;;;;;;;;;;4982946;28;20048;-66
2023/12/07 02:45:27;;;;;;;13.45;6.05;;;;;;;;;;4987295;28;19921;-66
2023/12/07 02:47:54;;;;;;;12.90;6.53;;;;;;;;;;4985017;28;20093;-66
2023/12/07 02:50:20;;;;;;;;;;;;;;;;;;4972639;28;20041;-66
2023/12/07 02:52:46;;;;;;;12.88;6.43;;;;;;;;;;4985814;28;19989;-66
2023/12/07 02:55:12;;;;;;;13.60;5.45;;;;;;;;;;4970472;28;20055;-66
2023/12/07 02:57:38;;;;;;;10.98;4.97;;;;;;;;;;4982865;28;20040;-66
2023/12/07 03:00:08;;;;;;;11.32;5.00;;;;;;;;;;4984964;28;20057;-66
2023/12/07 03:02:37;;;;;;;10.13;4.50;;;;;;;;;;4985214;28;20045;-65
2023/12/07 03:05:04;;;;;;;9.52;4.32;;;;;;;;;;4979780;28;20123;-65
2023/12/07 03:07:31;;;;;;;11.93;4.85;;;;;;;;;;4984076;28;20044;-67
2023/12/07 03:09:58;;;;;;;9.55;4.13;;;;;;;;;;4980856;28;20283;-66
2023/12/07 03:12:25;;;;;;;9.40;3.40;;;;;;;;;;4987001;28;20444;-65
2023/12/07 03:14:51;;;;;;;10.23;4.05;;;;;;;;;;4983337;28;20034;-65
2023/12/07 03:17:17;;;;;;;8.07;3.10;;;;;;;;;;4984641;28;20042;-65
2023/12/07 03:19:43;;;;;;;8.70;2.40;;;;;;;;;;4988692;28;20519;-65
2023/12/07 03:22:09;;;;;;;8.07;2.40;;;;;;;;;;4987615;28;20038;-66
2023/12/07 03:24:35;;;;;;;7.57;2.35;;;;;;;;;;4985179;28;20026;-65
2023/12/07 03:27:01;;;;;;;;;;;;;;;;;;4986408;28;20034;-65
2023/12/07 03:29:27;;;;;;;7.70;2.17;;;;;;;;;;4986632;28;19921;-66
2023/12/07 03:31:54;;;;;;;9.02;2.20;;;;;;;;;;4985615;28;20034;-65
2023/12/07 03:34:20;;;;;;;6.30;2.20;;;;;;;;;;4988880;28;20503;-65
2023/12/07 03:36:46;;;;;;;8.05;2.17;;;;;;;;;;4983976;28;20049;-66
2023/12/07 03:39:14;;;;;;;6.60;1.63;;;;;;;;;;4985164;28;20902;-67
2023/12/07 03:41:40;;;;;;;8.43;2.05;;;;;;;;;;4984322;28;20384;-68
2023/12/07 03:44:06;;;;;;;5.18;1.58;;;;;;;;;;4986750;28;20041;-66
2023/12/07 03:46:32;;;;;;;6.20;1.63;;;;;;;;;;4994899;28;20060;-67
2023/12/07 03:48:59;;;;;;;5.47;1.45;;;;;;;;;;4988174;28;20033;-68
2023/12/07 03:51:26;;;;;;;6.38;1.77;;;;;;;;;;4991982;28;20022;-68
2023/12/07 03:53:52;;;;;;;9.90;2.47;;;;;;;;;;4986935;28;20030;-65
2023/12/07 03:56:26;;;;;;;8.88;2.70;;;;;;;;;;4990250;28;20050;-67
2023/12/07 03:58:52;;;;;;;9.13;2.97;;;;;;;;;;4988227;28;20034;-67
2023/12/07 04:01:18;;;;;;;9.18;3.10;;;;;;;;;;4991628;28;20107;-67
2023/12/07 04:03:44;;;;;;;9.25;3.17;;;;;;;;;;4988644;28;20385;-68
2023/12/07 04:06:10;;;;;;;9.98;3.67;;;;;;;;;;4984799;28;20034;-68
2023/12/07 04:08:36;;;;;;;11.00;3.25;;;;;;;;;;4989924;28;20424;-66
2023/12/07 04:11:02;;;;;;;9.82;3.50;;;;;;;;;;4988257;28;20034;-66
2023/12/07 04:13:29;;;;;;;8.95;2.58;;;;;;;;;;4989979;28;20033;-70
2023/12/07 04:15:55;;;;;;;7.32;2.47;;;;;;;;;;4985046;28;20040;-66
2023/12/07 04:18:21;;;;;;;8.00;1.98;;;;;;;;;;4991541;28;20045;-66
2023/12/07 04:20:47;;;;;;;8.35;2.00;;;;;;;;;;4989533;28;20034;-65
2023/12/07 04:23:13;;;;;;;7.43;2.00;;;;;;;;;;4988676;28;20022;-66
2023/12/07 04:25:39;;;;;;;8.25;1.90;;;;;;;;;;4993645;28;20026;-65
2023/12/07 04:28:05;;;;;;;9.38;2.10;;;;;;;;;;4988841;28;20048;-66
2023/12/07 04:30:31;;;;;;;7.88;2.05;;;;;;;;;;4988404;28;20133;-65
2023/12/07 04:32:57;;;;;;;7.70;2.13;;;;;;;;;;4988343;28;20042;-65
2023/12/07 04:35:23;;;;;;;7.40;2.03;;;;;;;;;;4983817;28;20032;-65
2023/12/07 04:37:50;;;;;;;8.73;1.95;;;;;;;;;;4987056;28;20038;-65
2023/12/07 04:40:16;;;;;;;8.05;1.95;;;;;;;;;;4988411;28;20029;-66
2023/12/07 04:42:42;;;;;;;7.30;1.40;;;;;;;;;;4991020;28;20082;-66
2023/12/07 04:45:08;;;;;;;5.35;1.40;;;;;;;;;;4989235;28;20058;-66
2023/12/07 04:47:34;;;;;;;6.07;1.52;;;;;;;;;;4987917;28;20093;-66
2023/12/07 04:50:00;;;;;;;7.95;1.90;;;;;;;;;;4987098;28;20037;-66
2023/12/07 04:52:27;;;;;;;6.47;1.60;;;;;;;;;;4988234;28;20074;-66
2023/12/07 04:54:53;;;;;;;5.65;1.50;;;;;;;;;;4990535;28;20053;-66
2023/12/07 04:57:19;;;;;;;5.88;1.58;;;;;;;;;;4987658;28;20038;-66
2023/12/07 04:59:46;;;;;;;6.07;1.48;;;;;;;;;;4987378;28;20942;-66
2023/12/07 05:02:16;;;;;;;6.13;1.48;;;;;;;;;;4984610;28;22548;-65
2023/12/07 05:04:42;;;;;;;6.28;1.60;;;;;;;;;;4986672;28;20638;-65
2023/12/07 05:07:08;;;;;;;7.60;1.60;;;;;;;;;;4988292;28;20033;-66
2023/12/07 05:09:35;;;;;;;5.22;1.50;;;;;;;;;;4990880;28;20049;-66
2023/12/07 05:12:01;;;;;;;7.35;1.90;;;;;;;;;;4988101;28;20048;-65
2023/12/07 05:14:27;;;;;;;7.50;1.90;;;;;;;;;;4991045;28;20025;-66
2023/12/07 05:16:55;;;;;;;8.13;2.03;;;;;;;;;;4987977;28;20036;-65
2023/12/07 05:19:21;;;;;;;8.40;2.25;;;;;;;;;;4989761;28;20472;-66
2023/12/07 05:21:47;;;;;;;7.10;1.95;;;;;;;;;;4984562;28;20566;-65
2023/12/07 05:24:14;;;;;;;8.35;2.25;;;;;;;;;;4986055;28;20030;-67
2023/12/07 05:26:40;;;;;;;;;;;;;;;;;;4989730;28;20052;-65
2023/12/07 05:29:06;;;;;;;7.68;1.83;;;;;;;;;;4987441;28;20458;-66
2023/12/07 05:31:32;;;;;;;7.60;1.90;;;;;;;;;;4988402;28;20040;-68
2023/12/07 05:33:59;;;;;;;7.72;1.70;;;;;;;;;;4986760;28;20034;-69
2023/12/07 05:36:26;;;;;;;;;;;;;;;;;;4989616;28;20060;-67
2023/12/07 05:38:52;;;;;;;8.07;1.83;;;;;;;;;;4987120;28;19922;-67
2023/12/07 05:41:18;;;;;;;7.35;1.88;;;;;;;;;;4989701;28;20029;-68
2023/12/07 05:43:44;;;;;;;5.88;1.65;;;;;;;;;;4991027;28;20022;-68
2023/12/07 05:46:10;;;;;;;6.47;1.70;;;;;;;;;;4983852;28;20084;-66
2023/12/07 05:48:37;;;;;;;6.45;1.83;;;;;;;;;;4989264;28;20034;-67
2023/12/07 05:51:03;;;;;;;5.88;1.60;;;;;;;;;;4983302;28;20098;-66
2023/12/07 05:53:32;;;;;;;8.02;2.05;;;;;;;;;;4987717;28;20044;-66
2023/12/07 05:55:58;;;;;;;5.88;1.70;;;;;;;;;;4986997;28;20056;-66
2023/12/07 05:58:24;;;;;;;6.35;2.03;;;;;;;;;;4988229;28;20077;-66
2023/12/07 06:00:51;;;;;;;8.13;1.65;;;;;;;;;;4988340;28;20131;-66
2023/12/07 06:03:17;;;;;;;;;;;;;;;;;;4992853;28;20021;-67
2023/12/07 06:05:45;;;;;;;7.63;1.60;;;;;;;;;;4990471;28;19971;-67
2023/12/07 06:08:11;;;;;;;5.95;1.50;;;;;;;;;;4989389;28;20058;-66
2023/12/07 06:10:38;;;;;;;6.43;1.80;;;;;;;;;;4990917;28;20033;-66
2023/12/07 06:13:05;;;;;;;7.15;1.85;;;;;;;;;;4988530;28;20124;-66
2023/12/07 06:15:31;;;;;;;7.47;1.88;;;;;;;;;;4992618;28;20037;-67
2023/12/07 06:17:59;;;;;;;9.57;2.08;;;;;;;;;;4983083;28;20026;-67
2023/12/07 06:20:25;;;;;;;9.65;1.90;;;;;;;;;;4987238;28;20144;-67
2023/12/07 06:22:52;;;;;;;9.40;2.03;;;;;;;;;;4989540;28;20479;-67
2023/12/07 06:25:18;;;;;;;9.30;2.20;;;;;;;;;;4985408;28;20033;-65
2023/12/07 06:27:44;;;;;;;7.82;2.10;;;;;;;;;;4986587;28;20171;-65
2023/12/07 06:30:10;;;;;;;8.60;2.30;;;;;;;;;;4983352;28;20151;-66
2023/12/07 06:32:37;;;;;;;7.10;2.40;;;;;;;;;;4988159;28;20038;-67
2023/12/07 06:35:07;;;;;;;9.80;2.90;;;;;;;;;;4986413;28;20034;-66
2023/12/07 06:37:33;;;;;;;9.10;2.70;;;;;;;;;;4988843;28;20041;-64
2023/12/07 06:40:00;;;;;;;7.68;2.40;;;;;;;;;;4987785;28;20052;-66
2023/12/07 06:42:26;;;;;;;9.50;2.80;;;;;;;;;;4987296;28;20549;-66
2023/12/07 06:44:52;;;;;;;;;;;;;;;;;;4986955;28;20033;-67
2023/12/07 06:47:18;;;;;;;8.85;2.30;;;;;;;;;;4987244;28;19921;-65
2023/12/07 06:49:46;;;;;;;9.10;2.03;;;;;;;;;;4987924;28;20022;-66
2023/12/07 06:52:12;;;;;;;8.85;2.15;;;;;;;;;;4984509;28;20056;-65
2023/12/07 06:54:38;;;;;;;13.20;2.58;;;;;;;;;;4983242;28;20767;-67
2023/12/07 06:57:06;;;;;;;9.30;2.60;;;;;;;;;;4982919;28;20042;-65
2023/12/07 06:59:33;;;;;;;12.02;2.50;;;;;;;;;;4983072;28;20026;-66
2023/12/07 07:01:59;;;;;;;7.93;2.30;;;;;;;;;;4985998;28;20264;-66
2023/12/07 07:04:25;;;;;;;8.18;2.40;;;;;;;;;;4990504;28;20161;-67
2023/12/07 07:06:51;;;;;;;9.65;2.75;;;;;;;;;;4989723;28;20176;-66
2023/12/07 07:09:18;;;;;;;7.28;2.22;;;;;;;;;;4985278;28;20026;-66
2023/12/07 07:11:48;;;;;;;9.20;3.30;;;;;;;;;;4986389;28;20136;-67
2023/12/07 07:14:14;;;;;;;8.25;2.72;;;;;;;;;;4969520;28;20076;-66
2023/12/07 07:16:41;;;;;;;8.02;2.72;;;;;;;;;;4986543;28;20681;-65
2023/12/07 07:19:07;;;;;;;10.00;2.83;;;;;;;;;;4985369;28;20026;-67
2023/12/07 07:21:33;;;;;;;8.18;2.33;;;;;;;;;;4987122;28;20670;-66
2023/12/07 07:23:59;;;;;;;8.88;2.45;;;;;;;;;;4982447;28;20571;-65
2023/12/07 07:26:25;;;;;;;5.60;2.05;;;;;;;;;;4988366;28;20088;-66
2023/12/07 07:28:52;;;;;;;7.70;2.33;;;;;;;;;;4988282;28;20030;-66
2023/12/07 07:31:18;;;;;;;6.97;1.95;;;;;;;;;;4987129;28;20112;-66
2023/12/07 07:33:44;;;;;;;8.63;2.47;;;;;;;;;;4987783;28;20136;-68
2023/12/07 07:36:15;;;;;;;8.38;2.70;;;;;;;;;;4983874;28;20038;-67
2023/12/07 07:38:41;;;;;;;9.45;2.83;;;;;;;;;;4984215;28;20039;-67
2023/12/07 07:41:07;;;;;;;9.18;2.90;;;;;;;;;;4984807;28;20102;-65
2023/12/07 07:43:36;;;;;;;11.43;3.33;;;;;;;;;;4985479;28;20022;-67
2023/12/07 07:46:03;;;;;;;10.00;3.35;;;;;;;;;;4984188;28;20036;-65
2023/12/07 07:48:30;;;;;;;10.40;2.90;;;;;;;;;;4986529;28;20053;-67
2023/12/07 07:50:56;;;;;;;10.23;3.00;;;;;;;;;;4984229;28;20209;-67
2023/12/07 07:53:22;;;;;;;10.45;3.13;;;;;;;;;;4983653;28;20038;-65
2023/12/07 07:55:48;;;;;;;13.13;3.58;;;;;;;;;;4984989;28;20057;-66
2023/12/07 07:58:14;;;;;;;10.10;3.25;;;;;;;;;;4986896;28;20046;-65
2023/12/07 08:00:40;;;;;;;9.43;3.30;;;;;;;;;;4984021;28;20037;-66
2023/12/07 08:03:06;;;;;;;12.45;3.22;;;;;;;;;;4980369;28;20037;-66
2023/12/07 08:05:33;;;;;;;13.48;3.80;;;;;;;;;;4987443;28;20022;-66
2023/12/07 08:07:59;;;;;;;12.75;3.90;;;;;;;;;;4983199;28;20034;-65
2023/12/07 08:10:25;;;;;;;16.58;4.32;;;;;;;;;;4988395;28;20905;-66
2023/12/07 08:12:51;;;;;;;14.25;4.57;;;;;;;;;;4987602;28;20081;-66
2023/12/07 08:15:17;;;;;;;;;;;;;;;;;;4989584;28;20080;-66
2023/12/07 08:17:44;;;;;;;18.05;6.65;;;;;;;;;;4988116;28;20024;-67
2023/12/07 08:20:10;;;;;;;17.02;7.32;;;;;;;;;;4985412;28;20034;-67
2023/12/07 08:22:37;;;;;;;18.10;7.32;;;;;;;;;;4987375;28;20018;-66
2023/12/07 08:25:05;;;;;;;18.38;7.13;;;;;;;;;;4983620;28;20026;-65
2023/12/07 08:27:31;;;;;;;20.67;8.02;;;;;;;;;;4985439;28;20034;-67
2023/12/07 08:29:58;;;;;;;14.18;7.00;;;;;;;;;;4982301;28;20034;-66
2023/12/07 08:32:25;;;;;;;17.65;5.72;;;;;;;;;;4988996;28;20036;-68
2023/12/07 08:34:52;;;;;;;13.20;4.55;;;;;;;;;;4987033;28;20038;-66
2023/12/07 08:37:18;;;;;;;10.10;4.32;;;;;;;;;;4991290;28;20040;-66
2023/12/07 08:39:44;;;;;;;12.45;4.70;;;;;;;;;;4992118;28;20072;-67
2023/12/07 08:42:11;;;;;;;;;;;;;;;;;;4988198;28;20026;-68
2023/12/07 08:44:37;;;;;;;14.57;5.30;;;;;;;;;;4990834;28;19920;-66
2023/12/07 08:47:03;;;;;;;;;;;;;;;;;;4987468;28;20042;-66
2023/12/07 08:49:29;;;;;;;16.00;6.25;;;;;;;;;;5000661;28;19941;-67
2023/12/07 08:51:55;;;;;;;;;;;;;;;;;;4984405;28;20026;-65
2023/12/07 08:54:22;;;;;;;13.27;6.07;;;;;;;;;;4986008;28;20275;-66
2023/12/07 08:56:48;;;;;;;;;;;;;;;;;;4988074;28;20337;-67
2023/12/07 08:59:14;;;;;;;14.43;6.88;;;;;;;;;;4987512;28;19916;-66
2023/12/07 09:01:40;;;;;;;;;;;;;;;;;;4985096;28;20033;-66
2023/12/07 09:04:06;;;;;;;15.45;7.43;;;;;;;;;;4998933;28;19913;-66
2023/12/07 09:06:32;;;;;;;14.98;7.47;;;;;;;;;;4988089;28;20036;-68
2023/12/07 09:08:58;;;;;;;13.88;7.03;;;;;;;;;;4985811;28;20033;-67
2023/12/07 09:11:24;;;;;;;12.00;6.30;;;;;;;;;;4991664;28;20048;-67
2023/12/07 09:13:50;;;;;;;13.13;6.57;;;;;;;;;;4989898;28;20054;-67
2023/12/07 09:16:17;;;;;;;10.98;6.05;;;;;;;;;;4982389;28;20046;-67
2023/12/07 09:18:45;;;;;;;15.57;6.38;;;;;;;;;;4985355;28;20041;-67
2023/12/07 09:21:11;;;;;;;14.63;7.30;;;;;;;;;;4984191;28;20026;-66
2023/12/07 09:23:37;;;;;;;15.50;8.00;;;;;;;;;;4986280;28;20088;-66
2023/12/07 09:26:03;;;;;;;15.73;7.35;;;;;;;;;;4986116;28;20065;-65
2023/12/07 09:28:29;;;;;;;15.57;7.07;;;;;;;;;;4987197;28;20041;-65
2023/12/07 09:30:56;;;;;;;15.27;6.70;;;;;;;;;;4986164;28;20104;-67
2023/12/07 09:33:22;;;;;;;15.70;7.28;;;;;;;;;;4989341;28;20071;-66
2023/12/07 09:35:49;;;;;;;15.40;7.32;;;;;;;;;;4990872;28;20172;-67
2023/12/07 09:38:15;;;;;;;16.10;6.40;;;;;;;;;;4984860;28;20030;-69
2023/12/07 09:40:41;;;;;;;12.00;4.28;;;;;;;;;;4982681;28;20045;-70
2023/12/07 09:43:07;;;;;;;12.88;5.00;;;;;;;;;;4984924;28;20034;-70
2023/12/07 09:45:34;;;;;;;11.90;4.53;;;;;;;;;;4988038;28;20850;-69
2023/12/07 09:48:00;;;;;;;11.93;5.18;;;;;;;;;;4985841;28;20494;-68
2023/12/07 09:50:30;;;;;;;10.98;4.35;;;;;;;;;;4990453;28;20026;-69
2023/12/07 09:52:57;;;;;;;12.00;5.05;;;;;;;;;;4983049;28;20671;-70
2023/12/07 09:55:24;;;;;;;13.13;5.00;;;;;;;;;;4991432;28;20845;-71
2023/12/07 09:57:51;;;;;;;12.95;5.25;;;;;;;;;;4985241;28;20404;-69
2023/12/07 10:00:17;;;;;;;12.02;4.68;;;;;;;;;;4988319;28;20042;-71
2023/12/07 10:02:45;;;;;;;10.95;4.22;;;;;;;;;;4986820;28;20022;-69
2023/12/07 10:05:13;;;;;;;10.40;3.33;;;;;;;;;;4987986;28;20559;-67
2023/12/07 10:07:42;;;;;;;11.93;3.63;;;;;;;;;;4987879;28;20072;-70
2023/12/07 10:10:11;;;;;;;10.63;3.53;;;;;;;;;;4985326;28;20270;-69
2023/12/07 10:12:46;;;;;;;7.63;1.92;;;;;;;;;;4988102;28;20080;-70
2023/12/07 10:15:16;;;;;;;6.70;1.67;;;;;;;;;;4986247;28;20037;-68
2023/12/07 10:17:56;;;;;;;8.77;2.72;;;;;;;;;;4992130;28;20021;-68
2023/12/07 10:20:26;;;;;;;8.52;1.73;;;;;;;;;;4986314;28;20052;-68
2023/12/07 10:23:04;;;;;;;9.75;1.80;;;;;;;;;;4985666;28;20103;-69
2023/12/07 10:25:31;;;;;;;9.73;2.13;;;;;;;;;;4987581;28;20603;-68
2023/12/07 10:27:57;;;;;;;7.32;1.90;;;;;;;;;;4981481;28;20030;-68
2023/12/07 10:30:26;;;;;;;8.25;1.70;;;;;;;;;;4990581;28;20037;-67
2023/12/07 10:32:53;;;;;;;11.10;2.05;;;;;;;;;;4987466;28;20034;-67
2023/12/07 10:35:20;;;;;;;7.97;2.22;;;;;;;;;;4984623;28;20038;-68
2023/12/07 10:37:49;;;;;;;6.78;1.77;;;;;;;;;;4985746;28;20123;-69
2023/12/07 10:40:16;;;;;;;7.90;2.10;;;;;;;;;;4983431;28;20473;-69
2023/12/07 10:42:42;;;;;;;8.70;2.20;;;;;;;;;;4987169;28;20030;-68
2023/12/07 10:45:09;;;;;;;11.40;2.80;;;;;;;;;;4985072;28;20467;-69
2023/12/07 10:47:36;;;;;;;11.38;2.92;;;;;;;;;;4989889;28;20026;-69
2023/12/07 10:50:03;;;;;;;11.40;2.70;;;;;;;;;;4985164;28;20577;-68
2023/12/07 10:52:33;;;;;;;10.88;3.28;;;;;;;;;;4987747;28;20042;-68
2023/12/07 10:55:04;;;;;;;8.68;1.77;;;;;;;;;;4982327;28;20042;-67
2023/12/07 10:57:35;;;;;;;8.52;2.00;;;;;;;;;;4988101;28;20551;-70
2023/12/07 11:00:01;;;;;;;10.73;2.50;;;;;;;;;;4983379;28;20065;-68
2023/12/07 11:02:28;;;;;;;10.70;2.38;;;;;;;;;;4986418;28;20105;-68
2023/12/07 11:04:58;;;;;;;8.05;2.25;;;;;;;;;;4984562;28;20115;-67
2023/12/07 11:07:25;;;;;;;10.90;1.80;;;;;;;;;;4988241;28;20025;-70
2023/12/07 11:10:03;;;;;;;9.10;1.80;;;;;;;;;;4987637;28;20037;-69
2023/12/07 11:12:39;;;;;;;5.28;1.55;;;;;;;;;;4989254;28;20030;-69
2023/12/07 11:15:06;;;;;;;9.55;2.13;;;;;;;;;;4984709;28;20121;-68
2023/12/07 11:17:48;;;;;;;6.53;1.60;;;;;;;;;;4985495;28;20034;-70
2023/12/07 11:20:19;;;;;;;7.18;1.58;;;;;;;;;;4984695;28;20040;-69
2023/12/07 11:22:45;;;;;;;7.05;1.77;;;;;;;;;;4987093;28;20053;-68
2023/12/07 11:25:11;;;;;;;7.55;2.00;;;;;;;;;;4983155;28;20091;-72
2023/12/07 11:27:38;;;;;;;9.25;3.22;;;;;;;;;;4984857;28;20130;-69
2023/12/07 11:30:04;;;;;;;10.85;3.60;;;;;;;;;;4982517;28;20038;-69
2023/12/07 11:32:30;;;;;;;11.75;3.63;;;;;;;;;;4986191;28;20034;-69
2023/12/07 11:35:03;;;;;;;9.98;3.15;;;;;;;;;;4983789;28;20065;-69
2023/12/07 11:37:49;;;;;;;9.55;2.88;;;;;;;;;;4987583;28;20034;-68
2023/12/07 11:40:15;;;;;;;10.00;2.38;;;;;;;;;;4986860;28;20088;-68
2023/12/07 11:42:43;;;;;;;9.05;2.70;;;;;;;;;;4984491;28;20034;-68
2023/12/07 11:45:09;;;;;;;12.85;2.90;;;;;;;;;;4982743;28;20089;-68
2023/12/07 11:47:35;;;;;;;7.95;1.90;;;;;;;;;;4985136;28;20030;-69
2023/12/07 11:50:03;;;;;;;10.30;2.20;;;;;;;;;;4980726;28;20033;-67
2023/12/07 11:52:30;;;;;;;8.35;2.13;;;;;;;;;;4980246;28;20040;-68
2023/12/07 11:54:56;;;;;;;6.70;1.63;;;;;;;;;;4982824;28;20049;-68
2023/12/07 11:57:22;;;;;;;9.52;1.98;;;;;;;;;;4986518;28;20038;-68
2023/12/07 11:59:48;;;;;;;7.45;1.95;;;;;;;;;;4982477;28;20037;-68
2023/12/07 12:02:14;;;;;;;6.60;1.60;;;;;;;;;;4978773;28;20041;-69
2023/12/07 12:04:41;;;;;;;9.02;1.85;;;;;;;;;;4982975;28;20437;-69
2023/12/07 12:07:07;;;;;;;7.82;2.00;;;;;;;;;;4984315;28;20025;-69
2023/12/07 12:09:34;;;;;;;7.75;1.80;;;;;;;;;;4991524;28;20038;-68
2023/12/07 12:12:00;;;;;;;8.85;2.35;;;;;;;;;;4991517;28;20022;-68
2023/12/07 12:14:28;;;;;;;7.75;1.83;;;;;;;;;;4983305;28;20018;-69
2023/12/07 12:16:55;;;;;;;6.53;1.77;;;;;;;;;;4986549;28;20129;-68
2023/12/07 12:19:23;;;;;;;9.48;2.15;;;;;;;;;;4990327;28;20030;-69
2023/12/07 12:21:50;;;;;;;7.70;2.17;;;;;;;;;;4989643;28;20037;-68
2023/12/07 12:24:16;;;;;;;9.07;2.30;;;;;;;;;;4990158;28;20026;-71
2023/12/07 12:26:43;;;;;;;8.38;2.22;;;;;;;;;;4988772;28;20037;-68
2023/12/07 12:29:09;;;;;;;7.25;1.67;;;;;;;;;;4989512;28;20064;-67
2023/12/07 12:31:36;;;;;;;7.80;2.20;;;;;;;;;;4986334;28;20176;-70
2023/12/07 12:34:02;;;;;;;9.00;2.40;;;;;;;;;;4983575;28;20034;-68
2023/12/07 12:36:29;;;;;;;8.02;2.15;;;;;;;;;;4990031;28;20124;-68
2023/12/07 12:38:55;;;;;;;6.55;1.80;;;;;;;;;;4983886;28;20031;-69
2023/12/07 12:41:22;;;;;;;8.20;1.90;;;;;;;;;;4990433;28;20121;-68
2023/12/07 12:43:49;;;;;;;8.05;1.67;;;;;;;;;;4989487;28;20033;-68
2023/12/07 12:46:16;;;;;;;7.55;1.52;;;;;;;;;;4988694;28;20036;-68
2023/12/07 12:49:01;;;;;;;6.70;1.60;;;;;;;;;;4987556;28;20394;-67
2023/12/07 12:51:28;;;;;;;7.68;1.90;;;;;;;;;;4988325;28;20555;-69
2023/12/07 12:53:54;;;;;;;6.28;1.45;;;;;;;;;;4983381;28;20565;-68
2023/12/07 12:56:21;;;;;;;9.18;1.75;;;;;;;;;;4986719;28;20052;-67
2023/12/07 12:58:48;;;;;;;7.65;1.85;;;;;;;;;;4987004;28;20215;-68
2023/12/07 13:01:15;;;;;;;8.90;1.27;;;;;;;;;;4984911;28;20022;-69
2023/12/07 13:03:42;;;;;;;9.07;1.60;;;;;;;;;;4983743;28;20637;-71
2023/12/07 13:06:08;;;;;;;8.40;1.77;;;;;;;;;;4985829;28;20374;-68
2023/12/07 13:08:34;;;;;;;6.30;1.42;;;;;;;;;;4990991;28;20114;-68
2023/12/07 13:11:00;;;;;;;8.77;1.67;;;;;;;;;;4984757;28;20136;-68
2023/12/07 13:13:26;;;;;;;8.25;2.00;;;;;;;;;;4990065;28;20524;-67
2023/12/07 13:15:53;;;;;;;6.30;1.55;;;;;;;;;;4983091;28;20033;-68
2023/12/07 13:18:19;;;;;;;11.50;1.90;;;;;;;;;;4986565;28;20041;-67
2023/12/07 13:20:45;;;;;;;8.65;1.80;;;;;;;;;;4988044;28;20125;-67
2023/12/07 13:23:11;;;;;;;8.80;1.90;;;;;;;;;;4986982;28;20140;-68
2023/12/07 13:25:37;;;;;;;7.93;1.80;;;;;;;;;;4984879;28;20179;-69
2023/12/07 13:28:03;;;;;;;9.10;1.60;;;;;;;;;;4988173;28;20033;-67
2023/12/07 13:30:33;;;;;;;6.72;1.40;;;;;;;;;;4986702;28;20018;-70
2023/12/07 13:32:59;;;;;;;9.02;1.40;;;;;;;;;;4981273;28;20468;-69
2023/12/07 13:35:26;;;;;;;6.82;1.30;;;;;;;;;;4984852;28;20467;-69
2023/12/07 13:37:52;;;;;;;7.05;1.15;;;;;;;;;;4985068;28;20037;-69
2023/12/07 13:40:18;;;;;;;7.68;1.80;;;;;;;;;;4986242;28;20030;-69
2023/12/07 13:42:44;;;;;;;7.70;1.55;;;;;;;;;;4985085;28;20048;-68
2023/12/07 13:45:11;;;;;;;8.73;1.80;;;;;;;;;;4982683;28;20118;-68
2023/12/07 13:47:37;;;;;;;7.28;1.40;;;;;;;;;;4989438;28;20033;-68
2023/12/07 13:50:04;;;;;;;6.60;1.52;;;;;;;;;;4985065;28;20029;-67
2023/12/07 13:52:31;;;;;;;8.75;1.63;;;;;;;;;;4988024;28;20037;-67
2023/12/07 13:54:59;;;;;;;6.78;1.25;;;;;;;;;;4987521;28;20049;-69
2023/12/07 13:57:25;;;;;;;7.07;2.05;;;;;;;;;;4983471;28;20046;-69
2023/12/07 13:59:52;;;;;;;7.35;1.50;;;;;;;;;;4987077;28;20030;-69
2023/12/07 14:02:18;;;;;;;6.15;1.60;;;;;;;;;;4990301;28;20037;-69
2023/12/07 14:04:45;;;;;;;7.50;1.58;;;;;;;;;;4989436;28;20021;-70
2023/12/07 14:07:12;;;;;;;5.93;1.65;;;;;;;;;;4982911;28;20053;-68
2023/12/07 14:09:40;;;;;;;7.65;1.75;;;;;;;;;;4987307;28;20022;-69
2023/12/07 14:12:08;;;;;;;9.63;1.83;;;;;;;;;;4982362;28;20056;-68
2023/12/07 14:14:34;;;;;;;5.57;1.52;;;;;;;;;;4983809;28;20034;-68
2023/12/07 14:17:00;;;;;;;8.32;1.27;;;;;;;;;;4985566;28;20057;-68
2023/12/07 14:19:27;;;;;;;6.75;1.50;;;;;;;;;;4987563;28;20056;-68
2023/12/07 14:21:55;;;;;;;6.38;1.38;;;;;;;;;;4988814;28;20038;-68
2023/12/07 14:24:22;;;;;;;5.68;1.30;;;;;;;;;;4987150;28;20022;-67
2023/12/07 14:26:49;;;;;;;7.40;1.85;;;;;;;;;;4984868;28;20030;-66
2023/12/07 14:29:17;;;;;;;8.13;1.80;;;;;;;;;;4987240;28;20040;-70
2023/12/07 14:31:44;;;;;;;8.20;1.80;;;;;;;;;;4985114;28;20649;-68
2023/12/07 14:34:11;;;;;;;7.82;1.75;;;;;;;;;;4985184;28;20053;-67
2023/12/07 14:36:41;;;;;;;7.00;1.65;;;;;;;;;;4987185;28;20088;-67
2023/12/07 14:39:07;;;;;;;7.22;1.60;;;;;;;;;;4983793;28;20040;-67
2023/12/07 14:41:34;;;;;;;9.00;2.03;;;;;;;;;;4986913;28;20462;-68